Time;durP1;ratioP1;P1;durP2;ratioP2;P2;SDS_P1;SDS_P2;PMS_P1;PMS_P2;Temp;Humidity;BMP_temperature;BMP_pressure;BME280_temperature;BME280_humidity;BME280_pressure;Samples;Min_cycle;Max_cycle;Signal;HPM_P1;HPM_P2
2022/07/26 00:00:12;;;;;;;4.25;3.65;;;;;;;;;;1753035;82;21064;-68
2022/07/26 00:02:39;;;;;;;4.55;3.90;;;;;;;;;;1752860;82;21002;-67
2022/07/26 00:05:06;;;;;;;4.28;3.58;;;;;;;;;;1752717;81;21072;-67
2022/07/26 00:07:33;;;;;;;5.03;3.35;;;;;;;;;;1753225;82;21513;-68
2022/07/26 00:09:59;;;;;;;4.78;3.80;;;;;;;;;;1753269;82;21097;-69
2022/07/26 00:12:25;;;;;;;5.35;3.60;;;;;;;;;;1751878;82;21103;-68
2022/07/26 00:14:52;;;;;;;6.83;3.35;;;;;;;;;;1715037;82;21043;-68
2022/07/26 00:17:19;;;;;;;5.30;4.00;;;;;;;;;;1743130;82;21002;-68
2022/07/26 00:19:45;;;;;;;4.28;3.70;;;;;;;;;;1752257;82;21028;-69
2022/07/26 00:24:56;;;;;;;4.17;3.45;;;;;;;;;;1735458;82;21501;-67
2022/07/26 00:27:22;;;;;;;5.25;3.52;;;;;;;;;;1751310;81;21068;-68
2022/07/26 00:29:49;;;;;;;4.92;3.60;;;;;;;;;;1753190;82;21100;-68
2022/07/26 00:32:15;;;;;;;4.08;3.42;;;;;;;;;;1753162;81;21028;-68
2022/07/26 00:34:41;;;;;;;4.58;3.70;;;;;;;;;;1753204;82;21516;-68
2022/07/26 00:37:07;;;;;;;5.15;3.47;;;;;;;;;;1752138;82;21051;-68
2022/07/26 00:39:34;;;;;;;5.30;3.52;;;;;;;;;;1753271;82;21025;-68
2022/07/26 00:42:00;;;;;;;4.62;3.25;;;;;;;;;;1753186;82;21540;-68
2022/07/26 00:44:39;;;;;;;5.47;3.52;;;;;;;;;;1753342;82;21391;-68
2022/07/26 00:47:06;;;;;;;4.65;3.67;;;;;;;;;;1751483;82;21573;-68
2022/07/26 00:49:32;;;;;;;5.15;3.47;;;;;;;;;;1752860;82;21040;-68
2022/07/26 00:51:58;;;;;;;4.35;3.08;;;;;;;;;;1753531;82;21036;-68
2022/07/26 00:54:25;;;;;;;3.62;3.10;;;;;;;;;;1753202;81;21632;-68
2022/07/26 00:56:52;;;;;;;6.40;3.20;;;;;;;;;;1752062;81;21158;-67
2022/07/26 00:59:18;;;;;;;5.78;3.80;;;;;;;;;;1753056;82;21057;-67
2022/07/26 01:12:04;;;;;;;4.47;3.33;;;;;;;;;;1800191;79;23499;-69
2022/07/26 01:14:32;;;;;;;5.80;3.35;;;;;;;;;;1758164;80;20989;-69
2022/07/26 01:16:58;;;;;;;4.75;3.40;;;;;;;;;;1756273;81;22107;-68
2022/07/26 01:19:25;;;;;;;4.37;3.45;;;;;;;;;;1756696;80;22191;-69
2022/07/26 01:21:51;;;;;;;4.33;3.00;;;;;;;;;;1758627;80;21151;-68
2022/07/26 01:24:17;;;;;;;5.20;3.40;;;;;;;;;;1757443;80;21052;-68
2022/07/26 01:26:44;;;;;;;4.58;2.98;;;;;;;;;;1761271;81;21079;-68
2022/07/26 01:29:10;;;;;;;4.05;3.20;;;;;;;;;;1761338;81;21611;-67
2022/07/26 01:31:36;;;;;;;3.77;3.37;;;;;;;;;;1761953;80;20966;-68
2022/07/26 01:34:02;;;;;;;3.83;3.17;;;;;;;;;;1761350;81;21512;-67
2022/07/26 01:36:29;;;;;;;4.03;3.30;;;;;;;;;;1759350;80;21094;-68
2022/07/26 01:38:55;;;;;;;3.77;3.30;;;;;;;;;;1758621;80;21036;-68
2022/07/26 01:41:21;;;;;;;3.72;2.85;;;;;;;;;;1755697;82;21031;-68
2022/07/26 01:43:48;;;;;;;5.05;3.20;;;;;;;;;;1757103;81;21064;-69
2022/07/26 01:46:14;;;;;;;3.80;3.05;;;;;;;;;;1761426;81;21056;-68
2022/07/26 01:48:40;;;;;;;3.77;3.02;;;;;;;;;;1759593;80;21052;-69
2022/07/26 01:51:06;;;;;;;5.53;3.30;;;;;;;;;;1759128;80;21488;-69
2022/07/26 01:53:32;;;;;;;4.33;3.27;;;;;;;;;;1760174;81;22339;-68
2022/07/26 01:55:59;;;;;;;6.00;3.70;;;;;;;;;;1755111;81;22057;-68
2022/07/26 01:58:25;;;;;;;4.90;3.55;;;;;;;;;;1746975;80;21072;-68
2022/07/26 02:00:51;;;;;;;4.37;3.22;;;;;;;;;;1753830;81;21072;-68
2022/07/26 02:03:17;;;;;;;4.92;3.08;;;;;;;;;;1751840;81;21108;-68
2022/07/26 02:05:43;;;;;;;4.17;3.10;;;;;;;;;;1723716;83;21159;-68
2022/07/26 02:08:10;;;;;;;4.83;3.33;;;;;;;;;;1728514;81;21055;-68
2022/07/26 02:13:20;;;;;;;5.42;3.35;;;;;;;;;;1727879;81;21072;-69
2022/07/26 02:15:46;;;;;;;4.25;3.35;;;;;;;;;;1728862;83;21579;-69
2022/07/26 02:18:12;;;;;;;4.30;3.15;;;;;;;;;;1727532;83;21076;-68
2022/07/26 02:20:39;;;;;;;5.92;3.75;;;;;;;;;;1728717;81;21061;-68
2022/07/26 02:23:05;;;;;;;4.10;3.45;;;;;;;;;;1727523;83;21068;-69
2022/07/26 02:25:31;;;;;;;4.92;3.70;;;;;;;;;;1724669;82;21642;-69
2022/07/26 02:27:57;;;;;;;4.90;3.47;;;;;;;;;;1725480;82;21115;-69
2022/07/26 02:30:24;;;;;;;3.85;3.12;;;;;;;;;;1728736;81;21044;-69
2022/07/26 02:32:50;;;;;;;4.50;3.37;;;;;;;;;;1727154;82;21041;-69
2022/07/26 02:35:16;;;;;;;4.53;3.62;;;;;;;;;;1725866;81;21068;-69
2022/07/26 02:37:42;;;;;;;5.60;3.40;;;;;;;;;;1729047;81;21029;-69
2022/07/26 02:40:09;;;;;;;3.55;3.05;;;;;;;;;;1724527;83;21086;-69
2022/07/26 02:42:35;;;;;;;4.30;3.50;;;;;;;;;;1726145;83;21017;-69
2022/07/26 02:45:01;;;;;;;4.78;3.40;;;;;;;;;;1727522;81;21080;-69
2022/07/26 02:47:27;;;;;;;4.72;3.42;;;;;;;;;;1724076;83;21618;-69
2022/07/26 02:49:54;;;;;;;3.50;3.20;;;;;;;;;;1723739;81;21124;-68
2022/07/26 02:52:20;;;;;;;4.78;3.30;;;;;;;;;;1727530;81;21598;-68
2022/07/26 02:54:46;;;;;;;3.37;2.90;;;;;;;;;;1723770;83;21076;-68
2022/07/26 02:57:13;;;;;;;4.83;3.33;;;;;;;;;;1727651;81;21052;-69
2022/07/26 02:59:39;;;;;;;5.90;3.20;;;;;;;;;;1729151;82;21029;-68
2022/07/26 03:02:06;;;;;;;5.50;3.42;;;;;;;;;;1725251;83;21072;-68
2022/07/26 03:04:32;;;;;;;5.53;3.40;;;;;;;;;;1729246;81;21112;-68
2022/07/26 03:06:59;;;;;;;5.85;3.27;;;;;;;;;;1729155;81;21045;-68
2022/07/26 03:09:25;;;;;;;5.72;3.40;;;;;;;;;;1729179;83;21009;-69
2022/07/26 03:11:51;;;;;;;6.72;3.17;;;;;;;;;;1718506;81;21616;-69
2022/07/26 03:14:17;;;;;;;4.65;3.37;;;;;;;;;;1713972;83;21069;-68
2022/07/26 03:16:43;;;;;;;4.70;3.10;;;;;;;;;;1715768;82;20961;-68
2022/07/26 03:19:10;;;;;;;3.70;3.00;;;;;;;;;;1711900;83;21021;-69
2022/07/26 03:21:36;;;;;;;4.08;3.35;;;;;;;;;;1710440;83;21089;-69
2022/07/26 03:24:03;;;;;;;4.05;2.90;;;;;;;;;;1691935;84;21005;-69
2022/07/26 03:26:29;;;;;;;3.70;2.90;;;;;;;;;;1713417;82;21026;-69
2022/07/26 03:28:55;;;;;;;4.83;3.10;;;;;;;;;;1715566;83;21611;-68
2022/07/26 03:31:22;;;;;;;3.70;2.98;;;;;;;;;;1713559;82;21108;-68
2022/07/26 03:33:49;;;;;;;3.95;3.10;;;;;;;;;;1711151;83;21085;-68
2022/07/26 03:36:15;;;;;;;3.77;3.20;;;;;;;;;;1696666;82;21119;-68
2022/07/26 03:38:41;;;;;;;3.60;3.02;;;;;;;;;;1710996;83;21068;-68
2022/07/26 03:41:08;;;;;;;7.08;3.08;;;;;;;;;;1710694;82;21029;-69
2022/07/26 03:43:34;;;;;;;3.70;3.05;;;;;;;;;;1711001;83;21041;-68
2022/07/26 03:46:00;;;;;;;4.20;3.02;;;;;;;;;;1710901;82;21576;-69
2022/07/26 03:48:26;;;;;;;4.70;3.33;;;;;;;;;;1696439;84;21037;-69
2022/07/26 03:50:52;;;;;;;4.65;3.02;;;;;;;;;;1713374;82;21080;-68
2022/07/26 03:53:19;;;;;;;3.98;3.17;;;;;;;;;;1714672;83;21025;-69
2022/07/26 03:58:30;;;;;;;4.78;3.47;;;;;;;;;;1710453;83;21057;-68
2022/07/26 04:00:56;;;;;;;4.50;3.00;;;;;;;;;;1714657;82;21076;-68
2022/07/26 04:03:22;;;;;;;3.35;2.90;;;;;;;;;;1712151;83;21125;-68
2022/07/26 04:05:49;;;;;;;5.50;2.90;;;;;;;;;;1711697;82;21131;-68
2022/07/26 04:08:15;;;;;;;4.53;3.30;;;;;;;;;;1714872;82;21033;-67
2022/07/26 04:10:50;;;;;;;3.85;3.33;;;;;;;;;;1711156;82;21085;-67
2022/07/26 04:13:16;;;;;;;5.60;3.20;;;;;;;;;;1714062;83;21033;-66
2022/07/26 04:15:43;;;;;;;4.72;3.27;;;;;;;;;;1714948;82;21570;-67
2022/07/26 04:18:09;;;;;;;4.50;3.42;;;;;;;;;;1710591;84;21056;-66
2022/07/26 04:20:35;;;;;;;4.28;3.33;;;;;;;;;;1710412;82;21014;-66
2022/07/26 04:23:01;;;;;;;6.30;3.10;;;;;;;;;;1710861;84;21072;-67
2022/07/26 04:25:27;;;;;;;5.37;3.40;;;;;;;;;;1710851;84;21071;-66
2022/07/26 04:27:54;;;;;;;5.35;4.20;;;;;;;;;;1710750;84;21552;-66
2022/07/26 04:30:20;;;;;;;5.12;3.45;;;;;;;;;;1713311;82;21512;-66
2022/07/26 04:32:46;;;;;;;5.33;3.65;;;;;;;;;;1710259;82;21046;-66
2022/07/26 04:35:12;;;;;;;5.75;4.05;;;;;;;;;;1712816;82;21030;-66
2022/07/26 04:37:41;;;;;;;6.03;3.83;;;;;;;;;;1711056;82;21112;-67
2022/07/26 04:40:08;;;;;;;5.40;4.22;;;;;;;;;;1710406;83;21659;-66
2022/07/26 04:42:35;;;;;;;7.37;4.12;;;;;;;;;;1712954;83;21053;-67
2022/07/26 04:45:02;;;;;;;5.78;3.62;;;;;;;;;;1710319;83;21544;-66
2022/07/26 04:47:28;;;;;;;8.00;4.30;;;;;;;;;;1715804;82;21049;-66
2022/07/26 04:49:55;;;;;;;5.28;3.87;;;;;;;;;;1716363;83;21018;-66
2022/07/26 04:52:21;;;;;;;8.63;3.90;;;;;;;;;;1716537;83;21108;-67
2022/07/26 04:54:47;;;;;;;6.00;3.90;;;;;;;;;;1714285;83;21513;-67
2022/07/26 04:57:13;;;;;;;5.33;3.95;;;;;;;;;;1718617;82;21568;-66
2022/07/26 04:59:39;;;;;;;7.78;3.87;;;;;;;;;;1712192;82;21181;-66
2022/07/26 05:02:06;;;;;;;5.62;3.98;;;;;;;;;;1709869;82;21085;-67
2022/07/26 05:04:33;;;;;;;6.25;4.47;;;;;;;;;;1701845;83;21081;-67
2022/07/26 05:07:01;;;;;;;7.87;4.10;;;;;;;;;;1718353;82;21072;-65
2022/07/26 05:09:28;;;;;;;5.62;4.12;;;;;;;;;;1724215;82;21040;-66
2022/07/26 05:11:54;;;;;;;7.22;4.90;;;;;;;;;;1714901;82;21097;-66
2022/07/26 05:14:20;;;;;;;5.30;3.90;;;;;;;;;;1721737;81;21037;-65
2022/07/26 05:16:46;;;;;;;4.75;3.80;;;;;;;;;;1721580;82;21599;-65
2022/07/26 05:19:13;;;;;;;8.18;4.28;;;;;;;;;;1717342;82;21063;-65
2022/07/26 05:21:40;;;;;;;6.37;4.03;;;;;;;;;;1719797;82;21057;-66
2022/07/26 05:24:07;;;;;;;6.35;3.58;;;;;;;;;;1716622;82;21077;-68
2022/07/26 05:26:33;;;;;;;6.25;4.08;;;;;;;;;;1711306;83;21612;-66
2022/07/26 05:28:59;;;;;;;6.62;4.28;;;;;;;;;;1710766;82;21037;-67
2022/07/26 05:31:25;;;;;;;8.20;3.83;;;;;;;;;;1711014;82;21061;-67
2022/07/26 05:33:52;;;;;;;6.22;3.52;;;;;;;;;;1723887;82;21488;-68
2022/07/26 05:36:18;;;;;;;7.28;3.90;;;;;;;;;;1715827;82;21120;-66
2022/07/26 05:38:45;;;;;;;6.28;4.03;;;;;;;;;;1715975;83;21116;-67
2022/07/26 05:41:11;;;;;;;7.65;4.17;;;;;;;;;;1715378;83;21085;-67
2022/07/26 05:43:37;;;;;;;4.25;3.35;;;;;;;;;;1714182;82;21076;-67
2022/07/26 05:46:04;;;;;;;5.42;3.70;;;;;;;;;;1715038;82;21022;-68
2022/07/26 05:48:30;;;;;;;5.90;3.17;;;;;;;;;;1710739;83;21030;-67
2022/07/26 05:50:58;;;;;;;5.15;3.65;;;;;;;;;;1710312;82;21548;-67
2022/07/26 05:53:24;;;;;;;5.97;3.62;;;;;;;;;;1710915;83;21002;-66
2022/07/26 05:55:50;;;;;;;5.58;3.60;;;;;;;;;;1694128;83;21057;-66
2022/07/26 05:58:17;;;;;;;6.97;3.80;;;;;;;;;;1714879;82;21069;-66
2022/07/26 06:00:43;;;;;;;6.03;3.90;;;;;;;;;;1713910;82;21682;-66
2022/07/26 06:03:21;;;;;;;6.45;4.42;;;;;;;;;;1712696;82;21148;-67
2022/07/26 06:05:52;;;;;;;5.20;3.72;;;;;;;;;;1711368;82;21540;-65
2022/07/26 06:08:19;;;;;;;9.75;4.08;;;;;;;;;;1709255;82;21095;-66
2022/07/26 06:10:45;;;;;;;8.05;3.65;;;;;;;;;;1709168;82;21080;-66
2022/07/26 06:13:11;;;;;;;5.62;3.60;;;;;;;;;;1718423;82;21084;-66
2022/07/26 06:15:39;;;;;;;6.00;3.35;;;;;;;;;;1719369;82;20989;-67
2022/07/26 06:18:05;;;;;;;6.60;3.17;;;;;;;;;;1723103;82;21072;-66
2022/07/26 06:20:31;;;;;;;5.03;3.12;;;;;;;;;;1725279;82;21512;-65
2022/07/26 06:22:58;;;;;;;6.58;3.47;;;;;;;;;;1722588;82;21112;-66
2022/07/26 06:25:24;;;;;;;8.70;3.30;;;;;;;;;;1719238;82;21077;-66
2022/07/26 06:27:50;;;;;;;7.75;3.60;;;;;;;;;;1716995;83;21056;-66
2022/07/26 06:30:17;;;;;;;7.53;3.83;;;;;;;;;;1719770;83;21555;-65
2022/07/26 06:32:43;;;;;;;6.55;3.55;;;;;;;;;;1718213;83;21080;-66
2022/07/26 06:35:10;;;;;;;6.10;3.62;;;;;;;;;;1720288;82;21073;-66
2022/07/26 06:37:37;;;;;;;7.12;3.47;;;;;;;;;;1716801;82;21084;-65
2022/07/26 06:40:05;;;;;;;5.22;3.40;;;;;;;;;;1721102;82;21144;-65
2022/07/26 06:42:32;;;;;;;7.40;3.92;;;;;;;;;;1723770;82;21088;-67
2022/07/26 06:44:59;;;;;;;6.37;3.30;;;;;;;;;;1722300;82;21076;-66
2022/07/26 06:47:25;;;;;;;7.00;3.08;;;;;;;;;;1719240;82;21091;-65
2022/07/26 06:49:53;;;;;;;6.12;3.00;;;;;;;;;;1724704;82;21037;-64
2022/07/26 06:52:19;;;;;;;5.00;3.40;;;;;;;;;;1715756;82;21009;-64
2022/07/26 06:54:45;;;;;;;6.25;4.10;;;;;;;;;;1711403;82;21022;-65
2022/07/26 06:57:11;;;;;;;6.58;3.40;;;;;;;;;;1731762;82;21017;-65
2022/07/26 06:59:37;;;;;;;12.33;9.15;;;;;;;;;;1723527;82;21054;-66
2022/07/26 07:02:04;;;;;;;21.60;18.90;;;;;;;;;;1673126;85;21135;-65
2022/07/26 07:04:30;;;;;;;25.57;20.15;;;;;;;;;;1665298;86;21088;-65
2022/07/26 07:07:01;;;;;;;8.25;4.97;;;;;;;;;;1685371;84;21041;-69
2022/07/26 07:09:25;;;;;;;6.58;3.95;;;;;;;;;;1682978;84;21081;-69
2022/07/26 07:11:51;;;;;;;5.75;3.35;;;;;;;;;;1697586;84;21610;-68
2022/07/26 07:14:17;;;;;;;5.92;3.70;;;;;;;;;;1691744;84;21077;-68
2022/07/26 07:16:43;;;;;;;7.83;3.90;;;;;;;;;;1736210;82;21085;-69
2022/07/26 07:19:10;;;;;;;5.22;3.37;;;;;;;;;;1721758;82;21060;-68
2022/07/26 07:21:36;;;;;;;4.78;3.40;;;;;;;;;;1727104;82;21033;-70
2022/07/26 07:24:02;;;;;;;6.87;3.58;;;;;;;;;;1718202;83;21080;-71
2022/07/26 07:26:29;;;;;;;5.45;3.30;;;;;;;;;;1724254;82;21014;-68
2022/07/26 07:28:55;;;;;;;6.65;3.45;;;;;;;;;;1728257;82;21095;-68
2022/07/26 07:31:21;;;;;;;7.05;3.35;;;;;;;;;;1724399;82;20986;-68
2022/07/26 07:33:47;;;;;;;5.50;3.50;;;;;;;;;;1724862;82;21048;-68
2022/07/26 07:36:15;;;;;;;7.97;3.30;;;;;;;;;;1726902;82;21096;-68
2022/07/26 07:38:41;;;;;;;5.75;3.50;;;;;;;;;;1716491;82;21045;-69
2022/07/26 07:41:07;;;;;;;5.08;3.25;;;;;;;;;;1720235;82;21113;-69
2022/07/26 07:43:33;;;;;;;4.92;3.08;;;;;;;;;;1719440;83;21591;-71
2022/07/26 07:45:59;;;;;;;4.53;2.83;;;;;;;;;;1718631;82;21065;-68
2022/07/26 07:48:25;;;;;;;5.97;3.20;;;;;;;;;;1724550;82;21594;-69
2022/07/26 07:50:51;;;;;;;4.53;2.80;;;;;;;;;;1720094;83;21557;-69
2022/07/26 07:53:18;;;;;;;3.37;2.52;;;;;;;;;;1726389;82;21033;-70
2022/07/26 07:55:44;;;;;;;5.05;3.30;;;;;;;;;;1721884;82;21107;-67
2022/07/26 07:58:10;;;;;;;12.85;3.98;;;;;;;;;;1718197;82;21017;-70
2022/07/26 08:00:37;;;;;;;6.53;3.50;;;;;;;;;;1723732;82;21632;-70
2022/07/26 08:03:03;;;;;;;6.42;3.33;;;;;;;;;;1724281;82;22443;-70
2022/07/26 08:05:30;;;;;;;4.33;3.05;;;;;;;;;;1723700;82;21108;-69
2022/07/26 08:07:56;;;;;;;4.10;2.58;;;;;;;;;;1720017;81;21631;-70
2022/07/26 08:10:22;;;;;;;4.62;2.62;;;;;;;;;;1721568;82;21108;-71
2022/07/26 08:12:49;;;;;;;4.80;2.80;;;;;;;;;;1727042;82;21103;-70
2022/07/26 08:15:15;;;;;;;3.85;2.65;;;;;;;;;;1737052;82;21052;-70
2022/07/26 08:17:42;;;;;;;4.58;2.77;;;;;;;;;;1715424;82;21041;-71
2022/07/26 08:20:09;;;;;;;4.62;2.98;;;;;;;;;;1727372;82;21032;-70
2022/07/26 08:22:35;;;;;;;4.00;2.87;;;;;;;;;;1727900;83;21532;-69
2022/07/26 08:25:01;;;;;;;4.97;2.72;;;;;;;;;;1729429;83;21013;-69
2022/07/26 08:27:28;;;;;;;4.10;2.65;;;;;;;;;;1728698;81;21028;-69
2022/07/26 08:29:54;;;;;;;5.25;2.95;;;;;;;;;;1726140;82;21027;-69
2022/07/26 08:32:20;;;;;;;3.33;2.92;;;;;;;;;;1730161;81;21071;-68
2022/07/26 08:34:46;;;;;;;4.95;2.60;;;;;;;;;;1729832;81;21088;-68
2022/07/26 08:37:12;;;;;;;6.03;4.28;;;;;;;;;;1728560;81;20990;-69
2022/07/26 08:39:38;;;;;;;4.12;2.95;;;;;;;;;;1734226;81;20977;-68
2022/07/26 08:42:14;;;;;;;6.00;3.10;;;;;;;;;;1727434;81;21579;-68
2022/07/26 08:44:44;;;;;;;6.72;2.90;;;;;;;;;;1733695;81;21004;-69
2022/07/26 08:47:11;;;;;;;4.65;2.80;;;;;;;;;;1736927;81;21039;-67
2022/07/26 08:49:38;;;;;;;4.85;3.25;;;;;;;;;;1737440;81;21202;-66
2022/07/26 08:52:05;;;;;;;4.65;3.25;;;;;;;;;;1735368;81;21032;-69
2022/07/26 08:54:31;;;;;;;4.70;3.30;;;;;;;;;;1724062;81;21496;-68
2022/07/26 08:56:58;;;;;;;4.30;3.10;;;;;;;;;;1725851;81;21051;-69
2022/07/26 08:59:25;;;;;;;4.92;3.08;;;;;;;;;;1726596;81;21583;-73
2022/07/26 09:01:52;;;;;;;5.10;3.50;;;;;;;;;;1737755;81;21079;-74
2022/07/26 09:04:22;;;;;;;4.22;3.40;;;;;;;;;;1706587;81;21060;-73
2022/07/26 09:06:59;;;;;;;4.70;3.75;;;;;;;;;;1725065;81;20977;-74
2022/07/26 09:09:26;;;;;;;4.65;3.35;;;;;;;;;;1722364;82;21733;-71
2022/07/26 09:11:53;;;;;;;3.75;2.72;;;;;;;;;;1730382;81;20992;-74
2022/07/26 09:14:20;;;;;;;5.47;2.83;;;;;;;;;;1730318;82;21009;-73
2022/07/26 09:16:59;;;;;;;4.55;3.25;;;;;;;;;;1725852;81;21708;-75
2022/07/26 09:19:26;;;;;;;3.83;2.75;;;;;;;;;;1725551;81;21055;-73
2022/07/26 09:21:54;;;;;;;3.65;2.72;;;;;;;;;;1728566;82;21064;-73
2022/07/26 09:24:30;;;;;;;3.90;2.60;;;;;;;;;;1729190;83;21028;-74
2022/07/26 09:26:57;;;;;;;3.45;2.50;;;;;;;;;;1733125;81;22106;-74
2022/07/26 09:29:23;;;;;;;3.05;2.45;;;;;;;;;;1731559;82;21064;-72
2022/07/26 09:31:50;;;;;;;3.33;2.60;;;;;;;;;;1723774;82;21060;-73
2022/07/26 09:34:24;;;;;;;3.58;2.77;;;;;;;;;;1724998;81;21104;-75
2022/07/26 09:36:52;;;;;;;5.25;2.72;;;;;;;;;;1727849;81;21532;-73
2022/07/26 09:39:19;;;;;;;4.60;2.80;;;;;;;;;;1725398;81;21043;-72
2022/07/26 09:41:45;;;;;;;4.62;3.40;;;;;;;;;;1728252;81;21072;-70
2022/07/26 09:44:21;;;;;;;7.30;5.50;;;;;;;;;;1730801;81;21502;-72
2022/07/26 09:46:52;;;;;;;5.08;2.90;;;;;;;;;;1728005;81;21072;-68
2022/07/26 09:49:19;;;;;;;3.98;2.50;;;;;;;;;;1726061;81;21128;-68
2022/07/26 09:51:46;;;;;;;2.72;2.47;;;;;;;;;;1729634;81;21542;-69
2022/07/26 09:54:21;;;;;;;4.42;2.47;;;;;;;;;;1730223;81;21075;-69
2022/07/26 09:56:48;;;;;;;4.22;3.25;;;;;;;;;;1738036;82;21093;-71
2022/07/26 09:59:17;;;;;;;3.83;2.77;;;;;;;;;;1740324;81;21469;-70
2022/07/26 10:01:43;;;;;;;4.37;2.60;;;;;;;;;;1728369;81;21576;-72
2022/07/26 10:04:10;;;;;;;4.00;2.42;;;;;;;;;;1731365;81;21068;-73
2022/07/26 10:06:36;;;;;;;3.58;2.60;;;;;;;;;;1725095;81;21578;-72
2022/07/26 10:09:03;;;;;;;3.50;2.37;;;;;;;;;;1727006;81;21076;-69
2022/07/26 10:11:31;;;;;;;3.85;2.58;;;;;;;;;;1723392;81;21560;-70
2022/07/26 10:13:58;;;;;;;18.32;14.87;;;;;;;;;;1728830;82;21414;-72
2022/07/26 10:16:28;;;;;;;18.77;12.75;;;;;;;;;;1725143;82;21536;-70
2022/07/26 10:18:57;;;;;;;8.73;5.37;;;;;;;;;;1729623;82;21505;-71
2022/07/26 10:21:26;;;;;;;5.92;3.60;;;;;;;;;;1722353;82;21017;-69
2022/07/26 10:23:55;;;;;;;5.20;3.47;;;;;;;;;;1723756;82;21476;-68
2022/07/26 10:26:32;;;;;;;4.75;3.27;;;;;;;;;;1718800;82;21571;-68
2022/07/26 10:29:17;;;;;;;9.08;3.40;;;;;;;;;;1731584;82;21540;-68
2022/07/26 10:31:45;;;;;;;9.38;5.37;;;;;;;;;;1721623;82;21547;-68
2022/07/26 10:34:14;;;;;;;5.97;2.90;;;;;;;;;;1727203;82;21024;-68
2022/07/26 10:36:40;;;;;;;4.78;3.00;;;;;;;;;;1716968;82;21123;-67
2022/07/26 10:39:08;;;;;;;5.75;3.35;;;;;;;;;;1722466;82;22029;-67
2022/07/26 10:41:36;;;;;;;6.42;5.40;;;;;;;;;;1721111;83;21372;-68
2022/07/26 10:44:13;;;;;;;5.33;2.72;;;;;;;;;;1717765;83;21055;-67
2022/07/26 10:46:57;;;;;;;3.67;2.70;;;;;;;;;;1719294;83;21067;-69
2022/07/26 10:49:38;;;;;;;3.55;2.50;;;;;;;;;;1719312;83;21049;-68
2022/07/26 10:52:09;;;;;;;5.35;3.10;;;;;;;;;;1720152;82;21104;-67
2022/07/26 10:54:40;;;;;;;9.53;6.87;;;;;;;;;;1720503;82;21511;-67
2022/07/26 10:57:06;;;;;;;5.78;4.08;;;;;;;;;;1706984;82;21052;-67
2022/07/26 10:59:32;;;;;;;4.80;3.72;;;;;;;;;;1703438;83;21033;-70
2022/07/26 11:01:58;;;;;;;39.67;35.48;;;;;;;;;;1723914;83;21026;-69
2022/07/26 11:04:24;;;;;;;18.37;16.48;;;;;;;;;;1723809;82;21304;-70
2022/07/26 11:06:52;;;;;;;19.57;13.05;;;;;;;;;;1718883;82;21628;-65
2022/07/26 11:09:18;;;;;;;4.33;3.90;;;;;;;;;;1720674;82;21511;-67
2022/07/26 11:11:45;;;;;;;12.63;6.80;;;;;;;;;;1721097;82;21013;-67
2022/07/26 11:14:13;;;;;;;5.25;3.87;;;;;;;;;;1724436;83;21103;-67
2022/07/26 11:16:41;;;;;;;3.22;2.70;;;;;;;;;;1725444;83;21028;-66
2022/07/26 11:19:14;;;;;;;6.10;5.50;;;;;;;;;;1725386;83;21668;-67
2022/07/26 11:21:42;;;;;;;4.60;2.87;;;;;;;;;;1725522;83;21056;-67
2022/07/26 11:24:09;;;;;;;5.80;2.70;;;;;;;;;;1724863;81;21047;-68
2022/07/26 11:26:37;;;;;;;4.55;2.85;;;;;;;;;;1724395;81;21130;-67
2022/07/26 11:29:05;;;;;;;4.70;2.92;;;;;;;;;;1722699;81;21083;-68
2022/07/26 11:31:38;;;;;;;4.20;3.47;;;;;;;;;;1724246;81;21012;-68
2022/07/26 11:34:04;;;;;;;6.08;4.03;;;;;;;;;;1723383;83;21033;-68
2022/07/26 11:36:36;;;;;;;4.50;2.70;;;;;;;;;;1724255;81;21057;-68
2022/07/26 11:39:04;;;;;;;3.98;2.58;;;;;;;;;;1725392;81;21063;-67
2022/07/26 11:41:31;;;;;;;4.28;2.80;;;;;;;;;;1724854;81;21035;-67
2022/07/26 11:43:57;;;;;;;3.62;2.42;;;;;;;;;;1724595;81;21031;-67
2022/07/26 11:46:25;;;;;;;6.58;4.55;;;;;;;;;;1724286;81;21075;-69
2022/07/26 11:48:51;;;;;;;4.75;3.75;;;;;;;;;;1725290;83;21058;-68
2022/07/26 11:51:19;;;;;;;6.72;4.67;;;;;;;;;;1724216;83;21100;-67
2022/07/26 11:53:45;;;;;;;8.58;6.03;;;;;;;;;;1724951;83;21094;-68
2022/07/26 11:56:13;;;;;;;4.12;3.08;;;;;;;;;;1725185;83;22203;-67
2022/07/26 11:58:39;;;;;;;4.37;2.55;;;;;;;;;;1725385;82;21337;-67
2022/07/26 12:01:06;;;;;;;4.20;2.80;;;;;;;;;;1725372;81;21118;-68
2022/07/26 12:03:35;;;;;;;5.62;2.62;;;;;;;;;;1726337;83;21076;-68
2022/07/26 12:06:02;;;;;;;4.67;2.90;;;;;;;;;;1725588;83;21051;-68
2022/07/26 12:08:40;;;;;;;6.30;3.62;;;;;;;;;;1725220;83;21062;-68
2022/07/26 12:11:06;;;;;;;5.35;3.40;;;;;;;;;;1724112;83;21107;-69
2022/07/26 12:13:35;;;;;;;4.75;2.75;;;;;;;;;;1719728;83;21082;-68
2022/07/26 12:16:02;;;;;;;5.00;2.90;;;;;;;;;;1704576;82;21118;-68
2022/07/26 12:18:30;;;;;;;6.08;3.70;;;;;;;;;;1705187;83;21299;-69
2022/07/26 12:21:02;;;;;;;8.83;3.67;;;;;;;;;;1707017;83;21056;-68
2022/07/26 12:23:30;;;;;;;3.58;2.72;;;;;;;;;;1706872;83;21069;-68
2022/07/26 12:25:56;;;;;;;4.40;2.77;;;;;;;;;;1706088;83;21085;-69
2022/07/26 12:28:40;;;;;;;4.45;3.42;;;;;;;;;;1707733;82;21021;-69
2022/07/26 12:31:09;;;;;;;6.75;3.42;;;;;;;;;;1705175;83;21160;-68
2022/07/26 12:33:37;;;;;;;4.90;3.00;;;;;;;;;;1705561;83;21084;-67
2022/07/26 12:36:05;;;;;;;4.55;3.30;;;;;;;;;;1704883;82;21061;-67
2022/07/26 12:38:38;;;;;;;3.87;2.90;;;;;;;;;;1670274;84;21105;-66
2022/07/26 12:41:06;;;;;;;3.92;2.80;;;;;;;;;;1713169;83;21112;-67
2022/07/26 12:43:39;;;;;;;4.92;3.08;;;;;;;;;;1713375;82;21057;-67
2022/07/26 12:46:06;;;;;;;5.97;3.42;;;;;;;;;;1708741;82;21076;-67
2022/07/26 12:48:32;;;;;;;6.33;4.65;;;;;;;;;;1715075;82;20998;-67
2022/07/26 12:50:59;;;;;;;3.42;2.95;;;;;;;;;;1708144;83;21120;-66
2022/07/26 12:53:25;;;;;;;4.50;2.58;;;;;;;;;;1711625;83;21005;-67
2022/07/26 12:55:51;;;;;;;4.37;2.72;;;;;;;;;;1712435;83;21080;-67
2022/07/26 12:58:17;;;;;;;4.83;3.80;;;;;;;;;;1709485;83;21596;-68
2022/07/26 13:00:44;;;;;;;3.67;2.70;;;;;;;;;;1710705;83;21160;-67
2022/07/26 13:03:11;;;;;;;3.20;2.40;;;;;;;;;;1692747;83;21033;-67
2022/07/26 13:05:37;;;;;;;3.58;2.30;;;;;;;;;;1711332;82;21120;-68
2022/07/26 13:08:04;;;;;;;3.98;2.98;;;;;;;;;;1707736;82;21068;-66
2022/07/26 13:10:31;;;;;;;3.85;2.85;;;;;;;;;;1704772;83;21085;-68
2022/07/26 13:12:58;;;;;;;4.80;3.00;;;;;;;;;;1707306;83;21068;-67
2022/07/26 13:15:24;;;;;;;3.98;2.85;;;;;;;;;;1706080;83;21071;-67
2022/07/26 13:17:52;;;;;;;5.03;3.15;;;;;;;;;;1707113;83;21093;-68
2022/07/26 13:20:19;;;;;;;4.83;3.10;;;;;;;;;;1706722;83;21592;-68
2022/07/26 13:22:46;;;;;;;5.65;2.60;;;;;;;;;;1709962;83;21001;-69
2022/07/26 13:25:12;;;;;;;8.30;3.30;;;;;;;;;;1711239;82;21041;-69
2022/07/26 13:29:03;;;;;;;4.05;2.62;;;;;;;;;;1791176;78;22922;-69
2022/07/26 13:31:30;;;;;;;3.70;2.60;;;;;;;;;;1754432;80;21480;-68
2022/07/26 13:33:57;;;;;;;6.28;3.35;;;;;;;;;;1754556;80;21024;-67
2022/07/26 13:36:23;;;;;;;8.48;5.35;;;;;;;;;;1755025;80;21031;-68
2022/07/26 13:38:49;;;;;;;5.90;3.40;;;;;;;;;;1755057;80;21064;-66
2022/07/26 13:41:16;;;;;;;4.28;3.05;;;;;;;;;;1764539;80;21200;-66
2022/07/26 13:43:42;;;;;;;30.80;27.82;;;;;;;;;;1752414;81;21048;-69
2022/07/26 13:46:09;;;;;;;49.53;38.20;;;;;;;;;;1752576;80;21059;-71
2022/07/26 13:48:35;;;;;;;32.67;28.35;;;;;;;;;;1753428;80;21139;-69
2022/07/26 13:51:02;;;;;;;12.85;9.30;;;;;;;;;;1753660;80;21013;-69
2022/07/26 13:53:29;;;;;;;15.75;13.72;;;;;;;;;;1750914;80;21076;-70
2022/07/26 13:55:55;;;;;;;24.67;22.02;;;;;;;;;;1751509;80;21099;-71
2022/07/26 13:58:22;;;;;;;6.28;3.87;;;;;;;;;;1745379;80;21115;-70
2022/07/26 14:00:48;;;;;;;3.37;2.70;;;;;;;;;;1732158;82;21068;-67
2022/07/26 14:03:16;;;;;;;4.87;3.02;;;;;;;;;;1739480;82;21060;-65
2022/07/26 14:05:42;;;;;;;4.45;2.90;;;;;;;;;;1740166;82;21036;-65
2022/07/26 14:08:08;;;;;;;4.12;2.55;;;;;;;;;;1742984;82;21334;-71
2022/07/26 14:10:38;;;;;;;5.47;3.05;;;;;;;;;;1733122;82;21652;-71
2022/07/26 14:13:06;;;;;;;4.33;2.72;;;;;;;;;;1746858;82;21100;-69
2022/07/26 14:15:32;;;;;;;3.50;2.62;;;;;;;;;;1723307;82;21056;-67
2022/07/26 14:17:58;;;;;;;3.40;2.60;;;;;;;;;;1742859;82;21036;-67
2022/07/26 14:20:26;;;;;;;3.98;2.42;;;;;;;;;;1739744;82;21005;-66
2022/07/26 14:22:55;;;;;;;5.47;2.98;;;;;;;;;;1740746;82;21056;-67
2022/07/26 14:25:22;;;;;;;4.35;2.37;;;;;;;;;;1740256;82;21043;-67
2022/07/26 14:27:52;;;;;;;2.90;2.10;;;;;;;;;;1734035;81;21216;-67
2022/07/26 14:30:19;;;;;;;5.33;2.72;;;;;;;;;;1727305;82;21060;-68
2022/07/26 14:32:46;;;;;;;3.58;2.25;;;;;;;;;;1725195;82;21033;-67
2022/07/26 14:35:15;;;;;;;3.80;2.33;;;;;;;;;;1726505;82;21022;-68
2022/07/26 14:37:42;;;;;;;4.67;2.60;;;;;;;;;;1732496;82;20973;-67
2022/07/26 14:40:08;;;;;;;7.37;2.85;;;;;;;;;;1727766;82;21870;-67
2022/07/26 14:42:35;;;;;;;4.22;2.30;;;;;;;;;;1715813;82;20982;-68
2022/07/26 14:45:02;;;;;;;5.33;2.72;;;;;;;;;;1736361;82;20994;-69
2022/07/26 14:47:29;;;;;;;4.10;2.60;;;;;;;;;;1732063;82;21021;-67
2022/07/26 14:49:55;;;;;;;3.85;2.65;;;;;;;;;;1729144;82;20954;-67
2022/07/26 14:52:21;;;;;;;2.52;2.12;;;;;;;;;;1739246;82;21041;-67
2022/07/26 14:54:47;;;;;;;3.67;2.60;;;;;;;;;;1738924;82;21045;-67
2022/07/26 14:57:14;;;;;;;3.90;2.40;;;;;;;;;;1731775;82;21577;-67
2022/07/26 14:59:40;;;;;;;4.22;2.90;;;;;;;;;;1723679;82;21557;-67
2022/07/26 15:02:06;;;;;;;3.05;2.52;;;;;;;;;;1733065;82;21084;-67